createdAt,value
2022-11-23T00:01:49.778Z,14.43
2022-11-23T00:04:23.528Z,11.68
2022-11-23T00:06:50.450Z,13.52
2022-11-23T00:09:23.512Z,13.05
2022-11-23T00:11:50.405Z,10.68
2022-11-23T00:14:24.585Z,11.65
2022-11-23T00:16:51.901Z,10.05
2022-11-23T00:19:18.764Z,10.10
2022-11-23T00:21:52.558Z,11.20
2022-11-23T00:24:19.468Z,10.98
2022-11-23T00:26:52.524Z,10.05
2022-11-23T00:29:19.441Z,11.25
2022-11-23T00:31:52.543Z,11.85
2022-11-23T00:34:25.540Z,12.02
2022-11-23T00:36:58.573Z,11.45
2022-11-23T00:39:32.427Z,12.18
2022-11-23T00:42:05.588Z,13.13
2022-11-23T00:44:32.413Z,10.25
2022-11-23T00:47:05.551Z,10.13
2022-11-23T00:49:32.742Z,10.25
2022-11-23T00:52:06.598Z,11.52
2022-11-23T00:54:33.536Z,10.45
2022-11-23T00:57:00.415Z,10.80
2022-11-23T00:59:33.949Z,12.95
2022-11-23T01:02:01.115Z,11.02
2022-11-23T01:04:28.208Z,11.15
2022-11-23T01:07:04.563Z,8.45
2022-11-23T01:09:31.706Z,11.15
2022-11-23T01:12:05.548Z,12.00
2022-11-23T01:14:32.416Z,10.70
2022-11-23T01:17:05.595Z,8.95
2022-11-23T01:19:32.588Z,11.55
2022-11-23T01:22:06.554Z,11.63
2022-11-23T01:24:39.606Z,11.48
2022-11-23T01:27:06.484Z,10.98
2022-11-23T01:29:39.555Z,10.68
2022-11-23T01:32:06.426Z,9.93
2022-11-23T01:34:39.622Z,8.65
2022-11-23T01:37:06.467Z,8.45
2022-11-23T01:39:39.580Z,8.85
2022-11-23T01:42:06.474Z,10.60
2022-11-23T01:44:41.592Z,10.85
2022-11-23T01:47:09.308Z,10.90
2022-11-23T01:49:47.568Z,9.25
2022-11-23T01:52:20.556Z,12.70
2022-11-23T01:55:08.119Z,11.13
2022-11-23T01:57:39.084Z,11.68
2022-11-23T02:00:13.657Z,10.73
2022-11-23T02:02:44.627Z,10.25
2022-11-23T02:05:18.563Z,10.70
2022-11-23T02:07:53.645Z,11.77
2022-11-23T02:10:27.623Z,10.80
2022-11-23T02:13:00.596Z,10.32
2022-11-23T02:15:27.548Z,9.05
2022-11-23T02:18:00.621Z,9.48
2022-11-23T02:20:27.606Z,12.63
2022-11-23T02:23:34.595Z,7.03
2022-11-23T02:26:09.931Z,8.10
2022-11-23T02:28:50.599Z,7.93
2022-11-23T02:31:17.439Z,9.30
2022-11-23T02:33:50.651Z,8.30
2022-11-23T02:36:40.040Z,6.90
2022-11-23T02:39:37.648Z,7.20
2022-11-23T02:42:05.078Z,7.90
2022-11-23T02:45:02.579Z,9.70
2022-11-23T02:47:29.515Z,8.77
2022-11-23T02:49:56.527Z,9.20
2022-11-23T02:52:29.581Z,7.93
2022-11-23T02:54:56.423Z,7.85
2022-11-23T02:57:29.601Z,10.02
2022-11-23T02:59:56.490Z,9.48
2022-11-23T03:02:29.577Z,8.82
2022-11-23T03:04:56.465Z,12.02
2022-11-23T03:07:29.685Z,7.68
2022-11-23T03:09:56.624Z,7.60
2022-11-23T03:12:29.659Z,8.77
2022-11-23T03:14:56.571Z,9.63
2022-11-23T03:17:23.472Z,8.32
2022-11-23T03:19:57.686Z,8.90
2022-11-23T03:22:24.719Z,7.85
2022-11-23T03:24:57.666Z,8.40
2022-11-23T03:27:24.508Z,8.57
2022-11-23T03:29:57.675Z,7.45
2022-11-23T03:32:30.653Z,8.98
2022-11-23T03:34:57.506Z,9.52
2022-11-23T03:37:30.587Z,8.50
2022-11-23T03:39:57.440Z,7.70
2022-11-23T03:42:24.389Z,6.80
2022-11-23T03:44:57.718Z,8.00
2022-11-23T03:47:31.626Z,7.45
2022-11-23T03:50:04.654Z,7.07
2022-11-23T03:52:37.676Z,7.80
2022-11-23T03:55:05.301Z,7.45
2022-11-23T03:57:32.180Z,6.90
2022-11-23T04:00:05.639Z,6.72
2022-11-23T04:02:32.611Z,6.80
2022-11-23T04:05:05.664Z,8.40
2022-11-23T04:07:32.715Z,10.80
2022-11-23T04:10:05.644Z,6.63
2022-11-23T04:12:32.573Z,6.57
2022-11-23T04:15:05.676Z,5.95
2022-11-23T04:17:32.555Z,7.45
2022-11-23T04:20:05.653Z,5.70
2022-11-23T04:22:38.716Z,8.98
2022-11-23T04:25:06.073Z,6.85
2022-11-23T04:27:39.667Z,6.00
2022-11-23T04:30:07.378Z,6.70
2022-11-23T04:32:40.757Z,8.00
2022-11-23T04:35:14.700Z,5.68
2022-11-23T04:37:41.693Z,6.80
2022-11-23T04:40:16.707Z,5.68
2022-11-23T04:42:49.655Z,6.68
2022-11-23T04:45:22.661Z,6.22
2022-11-23T04:47:49.599Z,5.93
2022-11-23T04:50:23.725Z,5.22
2022-11-23T04:52:50.614Z,5.32
2022-11-23T04:55:17.672Z,5.28
2022-11-23T04:57:50.635Z,6.53
2022-11-23T05:00:17.948Z,6.35
2022-11-23T05:02:51.750Z,5.22
2022-11-23T05:05:18.813Z,5.13
2022-11-23T05:07:45.746Z,6.25
2022-11-23T05:10:19.719Z,4.53
2022-11-23T05:12:53.687Z,5.80
2022-11-23T05:15:26.750Z,6.20
2022-11-23T05:17:58.849Z,5.15
2022-11-23T05:20:32.718Z,6.28
2022-11-23T05:22:59.778Z,6.10
2022-11-23T05:25:27.034Z,9.32
2022-11-23T05:28:07.501Z,18.65
2022-11-23T05:30:54.677Z,22.73
2022-11-23T05:33:21.655Z,13.60
2022-11-23T05:35:48.774Z,7.40
2022-11-23T05:38:22.674Z,6.38
2022-11-23T05:40:55.672Z,5.40
2022-11-23T05:43:22.631Z,5.22
2022-11-23T05:45:55.691Z,4.72
2022-11-23T05:48:22.693Z,6.35
2022-11-23T05:50:50.709Z,6.35
2022-11-23T05:53:23.705Z,8.55
2022-11-23T05:55:50.729Z,14.90
2022-11-23T05:58:23.713Z,10.98
2022-11-23T06:00:50.766Z,7.72
2022-11-23T06:03:23.750Z,6.00
2022-11-23T06:05:50.730Z,5.15
2022-11-23T06:08:23.687Z,6.95
2022-11-23T06:10:50.677Z,5.78
2022-11-23T06:13:23.763Z,4.78
2022-11-23T06:15:56.746Z,4.22
2022-11-23T06:18:23.651Z,5.20
2022-11-23T06:20:56.773Z,5.45
2022-11-23T06:23:23.832Z,7.13
2022-11-23T06:25:57.700Z,10.48
2022-11-23T06:28:30.777Z,12.50
2022-11-23T06:31:01.928Z,10.60
2022-11-23T06:33:28.907Z,6.00
2022-11-23T06:36:03.770Z,9.30
2022-11-23T06:38:37.673Z,11.90
2022-11-23T06:41:10.780Z,7.70
2022-11-23T06:43:37.714Z,6.65
2022-11-23T06:46:12.749Z,6.20
2022-11-23T06:48:39.625Z,7.65
2022-11-23T06:51:12.746Z,9.77
2022-11-23T06:53:45.783Z,14.88
2022-11-23T06:56:19.847Z,12.55
2022-11-23T06:58:46.919Z,9.98
2022-11-23T07:01:14.514Z,8.30
2022-11-23T07:03:47.766Z,6.43
2022-11-23T07:06:21.784Z,7.47
2022-11-23T07:08:55.008Z,4.90
2022-11-23T07:11:21.968Z,7.38
2022-11-23T07:13:55.795Z,10.82
2022-11-23T07:16:22.727Z,12.40
2022-11-23T07:18:56.081Z,8.35
2022-11-23T07:21:22.975Z,9.90
2022-11-23T07:23:56.897Z,11.52
2022-11-23T07:26:23.810Z,15.90
2022-11-23T07:28:50.713Z,9.57
2022-11-23T07:31:23.717Z,7.95
2022-11-23T07:33:56.750Z,5.32
2022-11-23T07:36:23.677Z,5.53
2022-11-23T07:38:56.745Z,6.93
2022-11-23T07:41:29.693Z,7.22
2022-11-23T07:43:56.598Z,19.02
2022-11-23T07:46:29.765Z,14.85
2022-11-23T07:48:56.765Z,12.55
2022-11-23T07:51:29.730Z,13.45
2022-11-23T07:53:56.816Z,11.57
2022-11-23T07:56:30.746Z,13.40
2022-11-23T07:58:57.637Z,13.30
2022-11-23T08:01:30.740Z,12.23
2022-11-23T08:04:04.790Z,19.05
2022-11-23T08:06:31.668Z,10.23
2022-11-23T08:09:04.767Z,9.43
2022-11-23T08:11:31.683Z,13.63
2022-11-23T08:14:04.853Z,18.05
2022-11-23T08:16:38.748Z,24.08
2022-11-23T08:19:05.770Z,27.27
2022-11-23T08:21:38.720Z,27.73
2022-11-23T08:24:06.024Z,28.25
2022-11-23T08:26:39.790Z,30.10
2022-11-23T08:29:16.080Z,21.88
2022-11-23T08:31:42.992Z,16.90
2022-11-23T08:34:16.715Z,13.93
2022-11-23T08:36:43.617Z,12.98
2022-11-23T08:39:16.762Z,15.90
2022-11-23T08:41:49.764Z,19.67
2022-11-23T08:44:30.152Z,20.75
2022-11-23T08:47:03.806Z,17.17
2022-11-23T08:49:30.685Z,13.90
2022-11-23T08:52:03.781Z,12.48
2022-11-23T08:54:38.767Z,10.73
2022-11-23T08:57:05.714Z,9.95
2022-11-23T08:59:38.738Z,9.57
2022-11-23T09:02:05.637Z,10.57
2022-11-23T09:04:38.768Z,11.57
2022-11-23T09:07:05.743Z,10.77
2022-11-23T09:09:38.779Z,7.63
2022-11-23T09:12:06.207Z,8.48
2022-11-23T09:14:39.780Z,6.97
2022-11-23T09:17:06.705Z,8.38
2022-11-23T09:19:39.758Z,10.20
2022-11-23T09:22:06.654Z,7.35
2022-11-23T09:24:39.838Z,6.93
2022-11-23T09:27:06.822Z,7.10
2022-11-23T09:29:42.266Z,6.70
2022-11-23T09:32:09.132Z,4.72
2022-11-23T09:34:36.114Z,5.65
2022-11-23T09:37:09.798Z,5.85
2022-11-23T09:39:36.702Z,6.30
2022-11-23T09:42:21.766Z,4.35
2022-11-23T09:45:27.593Z,5.35
2022-11-23T09:48:35.839Z,5.57
2022-11-23T09:51:23.844Z,6.50
2022-11-23T09:54:02.352Z,8.43
2022-11-23T09:56:41.796Z,5.15
2022-11-23T09:59:21.422Z,4.53
2022-11-23T10:01:54.869Z,6.53
2022-11-23T10:04:21.987Z,6.75
2022-11-23T10:07:02.757Z,4.53
2022-11-23T10:10:06.853Z,6.78
2022-11-23T10:12:46.807Z,7.28
2022-11-23T10:15:37.925Z,6.60
2022-11-23T10:18:29.793Z,6.25
2022-11-23T10:21:25.834Z,6.88
2022-11-23T10:24:08.878Z,3.72
2022-11-23T10:26:41.282Z,6.18
2022-11-23T10:29:35.805Z,3.80
2022-11-23T10:32:02.706Z,4.18
2022-11-23T10:34:57.849Z,3.05
2022-11-23T10:37:24.780Z,3.00
2022-11-23T10:39:57.845Z,3.22
2022-11-23T10:42:48.858Z,2.10
2022-11-23T10:45:27.060Z,3.95
2022-11-23T10:48:07.858Z,3.05
2022-11-23T10:50:36.772Z,2.47
2022-11-23T10:53:06.685Z,4.25
2022-11-23T10:55:52.895Z,2.53
2022-11-23T10:58:39.843Z,2.42
2022-11-23T11:01:31.987Z,2.45
2022-11-23T11:04:09.799Z,3.65
2022-11-23T11:06:36.709Z,1.88
2022-11-23T11:09:25.873Z,2.00
2022-11-23T11:11:58.799Z,2.10
2022-11-23T11:14:25.841Z,1.35
2022-11-23T11:17:03.836Z,1.08
2022-11-23T11:19:35.627Z,2.28
2022-11-23T11:22:30.876Z,1.00
2022-11-23T11:25:06.250Z,2.05
2022-11-23T11:27:39.824Z,1.60
2022-11-23T11:30:14.921Z,2.60
2022-11-23T11:33:10.962Z,2.33
2022-11-23T11:35:51.903Z,3.00
2022-11-23T11:38:34.912Z,1.25
2022-11-23T11:41:08.454Z,0.80
2022-11-23T11:43:50.865Z,1.17
2022-11-23T11:46:31.138Z,1.20
2022-11-23T11:49:30.960Z,0.68
2022-11-23T11:52:20.759Z,1.13
2022-11-23T11:55:19.969Z,0.80
2022-11-23T11:57:55.304Z,2.58
2022-11-23T12:00:28.871Z,1.40
2022-11-23T12:03:18.491Z,1.25
2022-11-23T12:05:59.907Z,2.00
2022-11-23T12:09:06.402Z,3.35
2022-11-23T12:11:39.984Z,2.00
2022-11-23T12:14:11.051Z,2.42
2022-11-23T12:17:31.415Z,3.40
2022-11-23T12:20:02.302Z,3.60
2022-11-23T12:22:45.874Z,2.10
2022-11-23T12:25:27.342Z,2.08
2022-11-23T12:28:25.971Z,2.33
2022-11-23T12:31:07.862Z,4.47
2022-11-23T12:34:16.911Z,2.67
2022-11-23T12:37:17.917Z,3.35
2022-11-23T12:40:20.928Z,3.13
2022-11-23T12:42:56.032Z,2.90
2022-11-23T12:45:51.986Z,3.25
2022-11-23T12:48:37.070Z,4.90
2022-11-23T12:52:19.881Z,5.40
2022-11-23T12:55:31.933Z,2.13
2022-11-23T12:58:15.023Z,3.10
2022-11-23T13:00:53.584Z,4.47
2022-11-23T13:04:11.928Z,2.95
2022-11-23T13:07:28.959Z,3.38
2022-11-23T13:10:31.932Z,2.63
2022-11-23T13:13:23.944Z,3.40
2022-11-23T13:16:34.844Z,2.50
2022-11-23T13:19:29.929Z,3.08
2022-11-23T13:21:56.920Z,3.28
2022-11-23T13:24:41.954Z,2.72
2022-11-23T13:27:15.006Z,6.15
2022-11-23T13:29:56.886Z,4.30
2022-11-23T13:32:39.214Z,5.55
2022-11-23T13:35:27.888Z,5.68
2022-11-23T13:37:57.460Z,4.45
2022-11-23T13:40:38.956Z,4.80
2022-11-23T13:43:21.954Z,2.38
2022-11-23T13:46:25.943Z,3.97
2022-11-23T13:48:59.900Z,4.38
2022-11-23T13:51:33.818Z,3.05
2022-11-23T13:54:27.983Z,3.60
2022-11-23T13:57:01.452Z,3.22
2022-11-23T13:59:38.960Z,4.22
2022-11-23T14:02:09.004Z,4.57
2022-11-23T14:04:46.994Z,3.88
2022-11-23T14:07:24.720Z,2.83
2022-11-23T14:10:10.134Z,3.50
2022-11-23T14:12:57.317Z,2.55
2022-11-23T14:15:32.971Z,3.55
2022-11-23T14:18:29.946Z,5.10
2022-11-23T14:21:17.530Z,4.65
2022-11-23T14:24:14.149Z,2.83
2022-11-23T14:27:45.772Z,3.05
2022-11-23T14:30:28.984Z,3.78
2022-11-23T14:33:16.768Z,6.10
2022-11-23T14:36:05.006Z,6.03
2022-11-23T14:39:02.975Z,7.60
2022-11-23T14:41:39.022Z,3.65
2022-11-23T14:44:05.943Z,21.75
2022-11-23T14:47:16.029Z,8.43
2022-11-23T14:49:50.557Z,3.05
2022-11-23T14:52:27.984Z,4.07
2022-11-23T14:55:00.107Z,9.40
2022-11-23T14:57:53.940Z,7.20
2022-11-23T15:00:38.561Z,5.68
2022-11-23T15:06:16.204Z,3.35
2022-11-23T15:09:02.998Z,4.30
2022-11-23T15:11:35.955Z,3.40
2022-11-23T15:14:02.999Z,3.58
2022-11-23T15:16:32.388Z,3.97
2022-11-23T15:19:30.969Z,4.32
2022-11-23T15:22:04.052Z,5.88
2022-11-23T15:24:31.601Z,5.40
2022-11-23T15:27:12.731Z,6.70
2022-11-23T15:29:40.002Z,7.95
2022-11-23T15:32:37.087Z,16.25
2022-11-23T15:35:13.048Z,23.48
2022-11-23T15:37:46.886Z,27.83
2022-11-23T15:40:25.011Z,25.73
2022-11-23T15:42:51.937Z,20.05
2022-11-23T15:45:46.012Z,22.42
2022-11-23T15:48:21.758Z,17.58
2022-11-23T15:51:06.025Z,11.90
2022-11-23T15:53:50.054Z,7.90
2022-11-23T15:56:38.098Z,9.38
2022-11-23T15:59:34.975Z,9.82
2022-11-23T16:02:11.077Z,8.35
2022-11-23T16:04:39.996Z,8.10
2022-11-23T16:07:23.152Z,9.18
2022-11-23T16:10:43.459Z,9.90
2022-11-23T16:13:44.030Z,11.00
2022-11-23T16:16:16.100Z,11.07
2022-11-23T16:18:54.024Z,11.32
2022-11-23T16:21:21.090Z,11.77
2022-11-23T16:24:03.013Z,11.20
2022-11-23T16:26:39.073Z,8.82
2022-11-23T16:29:05.985Z,17.52
2022-11-23T16:31:47.019Z,62.83
2022-11-23T16:34:16.976Z,90.20
2022-11-23T16:36:43.914Z,60.72
2022-11-23T16:39:18.038Z,12.98
2022-11-23T16:41:45.008Z,6.63
2022-11-23T16:44:18.052Z,4.80
2022-11-23T16:46:47.263Z,4.40
2022-11-23T16:49:26.035Z,4.13
2022-11-23T16:51:56.725Z,10.93
2022-11-23T16:54:31.075Z,16.63
2022-11-23T16:56:57.972Z,19.17
2022-11-23T16:59:31.639Z,13.65
2022-11-23T17:01:59.374Z,14.18
2022-11-23T17:04:26.454Z,8.48
2022-11-23T17:07:00.079Z,4.72
2022-11-23T17:09:27.016Z,5.32
2022-11-23T17:12:00.048Z,8.50
2022-11-23T17:14:33.423Z,6.38
2022-11-23T17:17:07.046Z,6.57
2022-11-23T17:19:41.050Z,6.90
2022-11-23T17:22:08.016Z,8.43
2022-11-23T17:24:41.068Z,10.27
2022-11-23T17:27:15.991Z,11.98
2022-11-23T17:29:50.072Z,7.88
2022-11-23T17:32:23.095Z,7.63
2022-11-23T17:34:50.060Z,13.38
2022-11-23T17:37:30.054Z,9.18
2022-11-23T17:40:03.108Z,11.93
2022-11-23T17:42:30.069Z,11.27
2022-11-23T17:45:03.072Z,11.80
2022-11-23T17:47:30.276Z,10.50
2022-11-23T17:49:57.589Z,13.20
2022-11-23T17:52:31.061Z,10.93
2022-11-23T17:55:04.124Z,17.33
2022-11-23T17:57:31.282Z,18.45
2022-11-23T18:00:05.132Z,19.33
2022-11-23T18:02:32.121Z,13.40
2022-11-23T18:05:05.109Z,12.55
2022-11-23T18:07:32.381Z,9.82
2022-11-23T18:09:59.659Z,15.73
2022-11-23T18:12:33.170Z,11.15
2022-11-23T18:15:00.221Z,14.48
2022-11-23T18:17:34.142Z,13.45
2022-11-23T18:20:01.142Z,12.13
2022-11-23T18:22:35.051Z,18.08
2022-11-23T18:25:02.293Z,17.08
2022-11-23T18:27:36.301Z,22.23
2022-11-23T18:30:03.697Z,19.77
2022-11-23T18:32:37.157Z,16.65
2022-11-23T18:35:04.471Z,17.25
2022-11-23T18:37:45.066Z,14.57
2022-11-23T18:40:13.022Z,12.70
2022-11-23T18:42:46.095Z,10.70
2022-11-23T18:45:19.761Z,10.65
2022-11-23T18:47:53.080Z,8.70
2022-11-23T18:50:20.209Z,14.93
2022-11-23T18:52:54.076Z,15.88
2022-11-23T18:55:27.085Z,12.75
2022-11-23T18:57:54.830Z,11.98
2022-11-23T19:00:22.328Z,18.83
2022-11-23T19:03:04.073Z,20.00
2022-11-23T19:05:33.193Z,20.55
2022-11-23T19:08:08.138Z,26.67
2022-11-23T19:10:39.483Z,22.88
2022-11-23T19:13:06.503Z,31.48
2022-11-23T19:15:49.899Z,27.42
2022-11-23T19:18:23.204Z,27.75
2022-11-23T19:20:50.160Z,29.10
2022-11-23T19:23:28.270Z,29.60
2022-11-23T19:26:01.719Z,24.20
2022-11-23T19:28:35.168Z,38.35
2022-11-23T19:31:15.906Z,28.30
2022-11-23T19:33:51.076Z,24.75
2022-11-23T19:36:26.155Z,25.77
2022-11-23T19:38:59.137Z,24.88
2022-11-23T19:41:30.492Z,29.90
2022-11-23T19:44:05.174Z,29.33
2022-11-23T19:46:34.878Z,32.15
2022-11-23T19:49:11.106Z,38.75
2022-11-23T19:51:38.001Z,28.88
2022-11-23T19:54:11.155Z,31.60
2022-11-23T19:56:38.070Z,31.73
2022-11-23T19:59:11.134Z,27.40
2022-11-23T20:01:38.111Z,26.02
2022-11-23T20:04:12.109Z,32.15
2022-11-23T20:06:40.509Z,36.20
2022-11-23T20:09:19.153Z,26.95
2022-11-23T20:11:52.154Z,22.65
2022-11-23T20:14:26.163Z,23.65
2022-11-23T20:16:59.159Z,24.77
2022-11-23T20:19:26.118Z,26.98
2022-11-23T20:21:59.166Z,21.98
2022-11-23T20:24:26.126Z,17.58
2022-11-23T20:26:59.181Z,18.95
2022-11-23T20:29:26.423Z,17.98
2022-11-23T20:32:00.555Z,16.98
2022-11-23T20:34:34.637Z,22.17
2022-11-23T20:37:08.274Z,16.38
2022-11-23T20:39:35.185Z,28.65
2022-11-23T20:42:02.048Z,30.23
2022-11-23T20:44:35.440Z,48.88
2022-11-23T20:47:09.415Z,37.13
2022-11-23T20:49:43.202Z,33.03
2022-11-23T20:52:17.206Z,23.10
2022-11-23T20:54:50.169Z,19.05
2022-11-23T20:57:17.210Z,20.60
2022-11-23T20:59:51.158Z,33.33
2022-11-23T21:02:24.202Z,25.75
2022-11-23T21:04:51.181Z,20.40
2022-11-23T21:07:25.237Z,19.55
2022-11-23T21:09:52.295Z,19.83
2022-11-23T21:12:26.231Z,22.90
2022-11-23T21:14:53.286Z,21.90
2022-11-23T21:17:27.204Z,24.23
2022-11-23T21:19:54.194Z,24.25
2022-11-23T21:22:28.259Z,31.30
2022-11-23T21:25:05.202Z,26.20
2022-11-23T21:27:32.222Z,24.40
2022-11-23T21:29:59.235Z,25.65
2022-11-23T21:32:33.211Z,27.88
2022-11-23T21:35:00.562Z,20.98
2022-11-23T21:37:34.150Z,24.42
2022-11-23T21:40:01.172Z,24.55
2022-11-23T21:42:28.133Z,27.90
2022-11-23T21:45:01.251Z,19.85
2022-11-23T21:47:28.202Z,20.30
2022-11-23T21:50:02.235Z,24.23
2022-11-23T21:52:29.245Z,24.17
2022-11-23T21:55:02.181Z,21.73
2022-11-23T21:57:29.122Z,23.02
2022-11-23T22:00:02.172Z,22.65
2022-11-23T22:02:29.248Z,25.70
2022-11-23T22:05:02.242Z,22.52
2022-11-23T22:07:29.514Z,21.75
2022-11-23T22:10:03.200Z,20.25
2022-11-23T22:12:30.191Z,24.30
2022-11-23T22:14:57.131Z,20.20
2022-11-23T22:17:30.169Z,22.30
2022-11-23T22:19:57.116Z,31.10
2022-11-23T22:22:30.163Z,43.50
2022-11-23T22:24:57.160Z,34.45
2022-11-23T22:27:30.170Z,29.02
2022-11-23T22:29:57.054Z,28.20
2022-11-23T22:32:30.197Z,25.88
2022-11-23T22:34:57.089Z,22.58
2022-11-23T22:37:30.201Z,16.98
2022-11-23T22:39:57.133Z,16.83
2022-11-23T22:42:24.063Z,14.70
2022-11-23T22:44:57.213Z,17.92
2022-11-23T22:47:24.180Z,19.88
2022-11-23T22:49:57.200Z,16.88
2022-11-23T22:52:24.121Z,15.27
2022-11-23T22:54:57.156Z,18.40
2022-11-23T22:57:24.058Z,15.23
2022-11-23T22:59:57.179Z,19.70
2022-11-23T23:02:24.050Z,16.13
2022-11-23T23:04:57.203Z,19.58
2022-11-23T23:07:31.275Z,15.95
2022-11-23T23:09:58.417Z,19.58
2022-11-23T23:12:32.246Z,17.27
2022-11-23T23:14:59.200Z,20.08
2022-11-23T23:17:26.229Z,16.60
2022-11-23T23:19:59.191Z,20.80
2022-11-23T23:22:26.052Z,20.17
2022-11-23T23:24:59.208Z,22.55
2022-11-23T23:27:26.143Z,21.75
2022-11-23T23:29:59.245Z,16.98
2022-11-23T23:32:29.117Z,19.58
2022-11-23T23:35:02.172Z,21.55
2022-11-23T23:37:29.089Z,20.67
2022-11-23T23:40:02.179Z,21.50
2022-11-23T23:42:29.140Z,17.15
2022-11-23T23:45:02.213Z,17.98
2022-11-23T23:47:29.213Z,17.77
2022-11-23T23:50:02.238Z,18.42
2022-11-23T23:52:29.135Z,16.30
2022-11-23T23:55:02.202Z,18.23
2022-11-23T23:57:29.961Z,24.58
